Time;durP1;ratioP1;P1;durP2;ratioP2;P2;SDS_P1;SDS_P2;PMS_P1;PMS_P2;Temp;Humidity;BMP_temperature;BMP_pressure;BME280_temperature;BME280_humidity;BME280_pressure;Samples;Min_cycle;Max_cycle;Signal;HPM_P1;HPM_P2
2021/01/02 00:01:15;;;;;;;13.13;10.33;;;20.20;45.40;;;;;;5031069;28;20482;-67
2021/01/02 00:04:05;;;;;;;14.53;9.03;;;20.20;45.30;;;;;;5033948;28;20486;-68
2021/01/02 00:06:52;;;;;;;12.03;8.90;;;20.20;45.40;;;;;;5035784;28;20482;-67
2021/01/02 00:09:19;;;;;;;13.23;10.67;;;20.20;45.30;;;;;;5053801;28;20482;-68
2021/01/02 00:11:52;;;;;;;11.50;9.93;;;20.10;45.40;;;;;;5056389;28;20493;-68
2021/01/02 00:14:24;;;;;;;10.77;9.60;;;20.10;45.40;;;;;;5054653;28;20759;-69
2021/01/02 00:17:19;;;;;;;13.70;9.87;;;20.10;45.40;;;;;;5052454;28;20539;-68
2021/01/02 00:19:56;;;;;;;10.10;8.80;;;20.10;45.40;;;;;;5053379;28;20489;-67
2021/01/02 00:22:30;;;;;;;13.00;9.00;;;20.10;45.50;;;;;;5044445;28;20493;-66
2021/01/02 00:24:56;;;;;;;10.73;9.10;;;20.10;45.40;;;;;;5050476;28;21012;-67
2021/01/02 00:27:26;;;;;;;12.90;9.63;;;20.10;45.70;;;;;;5053420;28;20486;-66
2021/01/02 00:30:07;;;;;;;9.63;8.63;;;20.10;45.70;;;;;;5044466;28;21089;-67
2021/01/02 00:32:55;;;;;;;14.33;10.70;;;20.10;45.70;;;;;;5038605;28;21034;-67
2021/01/02 00:35:22;;;;;;;10.67;9.13;;;20.10;45.80;;;;;;5036159;28;21033;-67
2021/01/02 00:37:54;;;;;;;11.47;8.33;;;20.10;45.70;;;;;;5071139;28;20529;-67
2021/01/02 00:40:20;;;;;;;10.83;8.83;;;20.10;45.60;;;;;;5056645;28;20490;-67
2021/01/02 00:42:47;;;;;;;11.57;9.00;;;20.10;46.30;;;;;;5055435;28;20505;-68
2021/01/02 00:45:15;;;;;;;14.03;9.77;;;20.10;45.50;;;;;;5055152;28;20602;-67
2021/01/02 00:47:42;;;;;;;11.40;8.67;;;20.10;45.50;;;;;;5054475;28;20889;-67
2021/01/02 00:50:10;;;;;;;9.90;8.20;;;20.10;46.20;;;;;;5057290;28;20469;-66
2021/01/02 00:53:12;;;;;;;11.10;8.70;;;20.10;46.20;;;;;;5056316;28;20470;-67
2021/01/02 00:55:49;;;;;;;11.93;9.30;;;20.10;45.50;;;;;;5044240;28;20484;-67
2021/01/02 00:58:24;;;;;;;10.50;8.70;;;20.10;45.50;;;;;;5055233;28;20500;-67
2021/01/02 01:00:51;;;;;;;11.23;9.37;;;20.10;45.60;;;;;;5056859;28;20488;-67
2021/01/02 01:03:24;;;;;;;10.70;8.77;;;20.00;45.50;;;;;;5058176;28;20480;-67
2021/01/02 01:05:50;;;;;;;15.37;9.97;;;20.10;45.60;;;;;;5057484;28;20482;-66
2021/01/02 01:08:17;;;;;;;9.57;8.67;;;20.10;45.60;;;;;;5059696;28;20486;-67
2021/01/02 01:10:44;;;;;;;12.90;9.30;;;20.10;45.60;;;;;;5059321;28;20484;-66
2021/01/02 01:13:14;;;;;;;11.83;9.10;;;20.10;45.60;;;;;;5057541;28;20464;-67
2021/01/02 01:15:40;;;;;;;9.33;8.20;;;20.10;45.70;;;;;;5048421;28;20481;-68
2021/01/02 01:18:26;;;;;;;10.13;8.33;;;20.10;45.60;;;;;;5056497;28;20492;-66
2021/01/02 01:20:56;;;;;;;9.10;8.20;;;20.10;45.60;;;;;;5065513;28;20515;-66
2021/01/02 01:23:38;;;;;;;11.73;7.93;;;20.10;45.60;;;;;;5059749;28;20473;-67
2021/01/02 01:26:44;;;;;;;11.73;9.67;;;20.10;45.80;;;;;;5059237;28;20930;-67
2021/01/02 01:29:17;;;;;;;11.33;8.80;;;20.10;45.90;;;;;;4963091;28;20534;-66
2021/01/02 01:31:45;;;;;;;11.27;8.90;;;20.10;45.90;;;;;;4967642;28;20609;-67
2021/01/02 01:34:12;;;;;;;9.20;7.90;;;20.10;45.70;;;;;;5001012;28;20500;-67
2021/01/02 01:36:42;;;;;;;10.03;8.40;;;20.00;45.60;;;;;;5027777;28;21060;-67
2021/01/02 01:39:08;;;;;;;8.63;7.60;;;20.00;45.60;;;;;;5036256;28;20474;-68
2021/01/02 01:41:35;;;;;;;10.37;9.07;;;20.00;45.60;;;;;;5035961;28;20483;-67
2021/01/02 01:44:46;;;;;;;8.80;7.77;;;20.00;45.70;;;;;;5034871;28;20493;-66
2021/01/02 01:47:17;;;;;;;10.50;8.90;;;20.00;45.60;;;;;;5028322;28;21020;-66
2021/01/02 01:50:22;;;;;;;10.10;8.33;;;20.00;45.70;;;;;;5042675;28;20513;-67
2021/01/02 01:53:19;;;;;;;9.10;7.93;;;20.00;45.70;;;;;;5049287;28;20492;-67
2021/01/02 01:55:57;;;;;;;10.70;8.23;;;20.10;45.90;;;;;;5059860;28;20477;-66
2021/01/02 01:58:36;;;;;;;10.40;8.47;;;20.00;45.80;;;;;;5062115;28;20527;-65
2021/01/02 02:01:03;;;;;;;11.43;8.57;;;20.00;45.80;;;;;;5057519;28;20490;-67
2021/01/02 02:03:29;;;;;;;9.30;7.47;;;20.00;45.80;;;;;;5057279;28;20470;-68
2021/01/02 02:06:01;;;;;;;15.20;9.40;;;20.00;45.80;;;;;;5057290;28;20485;-67
2021/01/02 02:08:45;;;;;;;9.40;7.60;;;20.10;45.80;;;;;;5059669;28;20848;-67
2021/01/02 02:11:30;;;;;;;9.50;7.80;;;20.00;45.60;;;;;;5018834;28;20497;-67
2021/01/02 02:14:00;;;;;;;10.57;8.20;;;20.00;45.70;;;;;;5050828;28;20656;-67
2021/01/02 02:16:26;;;;;;;10.03;8.60;;;20.00;45.60;;;;;;5057440;28;20856;-67
2021/01/02 02:18:54;;;;;;;9.70;7.60;;;20.00;46.00;;;;;;5056211;28;20910;-66
2021/01/02 02:21:20;;;;;;;9.03;7.13;;;20.10;45.90;;;;;;5067519;28;20539;-67
2021/01/02 02:23:47;;;;;;;8.77;7.90;;;20.00;45.90;;;;;;5060641;28;20525;-67
2021/01/02 02:26:19;;;;;;;11.97;7.60;;;20.10;46.00;;;;;;5059110;28;20833;-67
2021/01/02 02:29:12;;;;;;;12.30;8.77;;;20.00;45.90;;;;;;5045322;28;20543;-67
2021/01/02 02:31:41;;;;;;;8.97;7.27;;;20.00;45.90;;;;;;5058812;28;20481;-67
2021/01/02 02:34:07;;;;;;;9.03;7.57;;;20.10;46.60;;;;;;5057323;28;20469;-67
2021/01/02 02:36:34;;;;;;;8.87;7.97;;;20.10;45.70;;;;;;5059081;28;20486;-67
2021/01/02 02:39:01;;;;;;;9.37;7.47;;;20.00;45.60;;;;;;5052023;28;20549;-67
2021/01/02 02:41:36;;;;;;;7.20;6.50;;;20.00;45.70;;;;;;5058057;28;21017;-67
2021/01/02 02:44:03;;;;;;;8.50;7.60;;;20.00;45.70;;;;;;5052805;28;20487;-66
2021/01/02 02:46:33;;;;;;;10.67;8.03;;;20.00;45.60;;;;;;5065837;28;21005;-67
2021/01/02 02:49:01;;;;;;;10.60;7.47;;;20.00;45.60;;;;;;5056305;28;20497;-66
2021/01/02 02:51:27;;;;;;;10.30;8.27;;;20.00;45.70;;;;;;5057317;28;20482;-67
2021/01/02 02:53:54;;;;;;;10.40;8.43;;;20.00;45.60;;;;;;5052179;28;20540;-67
2021/01/02 02:56:20;;;;;;;7.43;6.73;;;20.00;45.70;;;;;;5065123;28;20493;-67
2021/01/02 02:58:46;;;;;;;7.47;6.20;;;20.00;46.10;;;;;;5056101;28;20481;-67
2021/01/02 03:01:12;;;;;;;8.70;7.07;;;20.00;45.80;;;;;;5046731;28;20487;-66
2021/01/02 03:03:39;;;;;;;10.80;7.03;;;20.00;45.90;;;;;;5038191;28;20475;-66
2021/01/02 03:06:05;;;;;;;8.30;7.03;;;20.00;45.80;;;;;;5035775;28;20485;-67
2021/01/02 03:08:31;;;;;;;8.70;6.47;;;20.00;45.80;;;;;;5038332;28;20493;-67
2021/01/02 03:10:58;;;;;;;10.10;6.60;;;20.00;45.70;;;;;;5039209;28;21555;-67
2021/01/02 03:13:24;;;;;;;7.30;6.60;;;20.00;45.70;;;;;;5035711;28;20485;-66
2021/01/02 03:15:50;;;;;;;7.03;6.33;;;20.00;45.70;;;;;;5040454;28;20589;-68
2021/01/02 03:18:16;;;;;;;7.93;7.13;;;20.00;45.60;;;;;;5029366;28;20493;-67
2021/01/02 03:20:43;;;;;;;8.23;7.40;;;20.00;45.60;;;;;;5048481;28;20475;-66
2021/01/02 03:23:09;;;;;;;7.67;6.83;;;20.00;45.60;;;;;;5030221;28;20528;-67
2021/01/02 03:25:36;;;;;;;7.37;6.53;;;20.00;45.80;;;;;;5046752;28;20490;-66
2021/01/02 03:28:03;;;;;;;9.13;7.17;;;20.00;45.70;;;;;;5035129;28;20490;-67
2021/01/02 03:30:29;;;;;;;7.63;6.83;;;20.00;45.70;;;;;;5033151;28;20482;-67
2021/01/02 03:32:56;;;;;;;8.47;7.67;;;20.00;45.80;;;;;;5032448;28;20481;-67
2021/01/02 03:35:22;;;;;;;9.40;7.70;;;19.90;45.60;;;;;;5035423;28;20486;-67
2021/01/02 03:37:49;;;;;;;8.17;6.90;;;19.90;45.60;;;;;;5042554;28;20482;-67
2021/01/02 03:40:16;;;;;;;7.70;6.40;;;19.90;45.90;;;;;;5031360;28;20882;-67
2021/01/02 03:42:43;;;;;;;7.03;6.10;;;19.90;46.00;;;;;;5017961;28;20482;-67
2021/01/02 03:45:10;;;;;;;7.50;6.30;;;19.90;45.90;;;;;;5033738;28;20882;-67
2021/01/02 03:47:36;;;;;;;7.97;7.27;;;19.90;46.00;;;;;;5036152;28;20471;-67
2021/01/02 03:50:03;;;;;;;6.57;5.80;;;19.90;45.90;;;;;;5037016;28;20494;-67
2021/01/02 03:52:29;;;;;;;7.27;6.57;;;19.90;46.00;;;;;;5035599;28;20556;-66
2021/01/02 03:54:57;;;;;;;7.07;6.40;;;19.90;46.10;;;;;;5034789;28;20479;-68
2021/01/02 03:57:23;;;;;;;6.47;5.97;;;19.90;46.10;;;;;;5043279;28;20984;-67
2021/01/02 03:59:50;;;;;;;6.90;6.13;;;19.80;46.10;;;;;;5033812;28;20982;-68
2021/01/02 04:02:16;;;;;;;8.73;6.20;;;19.90;46.10;;;;;;5035972;28;21124;-68
2021/01/02 04:04:42;;;;;;;7.70;6.90;;;19.90;46.10;;;;;;5022901;28;20512;-68
2021/01/02 04:07:08;;;;;;;10.13;6.80;;;19.90;46.00;;;;;;5036689;28;20467;-68
2021/01/02 04:09:34;;;;;;;7.17;6.37;;;19.90;45.90;;;;;;5032515;28;20483;-68
2021/01/02 04:12:01;;;;;;;7.87;7.07;;;19.90;45.90;;;;;;5041630;28;20482;-68
2021/01/02 04:14:27;;;;;;;7.00;5.73;;;19.90;46.00;;;;;;5054747;28;20481;-67
2021/01/02 04:16:53;;;;;;;6.60;5.57;;;19.80;45.90;;;;;;5056887;28;20493;-68
2021/01/02 04:19:20;;;;;;;7.17;6.10;;;19.90;46.10;;;;;;5055035;28;21062;-68
2021/01/02 04:21:46;;;;;;;5.90;5.27;;;19.90;46.20;;;;;;5055737;28;20544;-68
2021/01/02 04:24:12;;;;;;;7.97;6.40;;;19.90;46.10;;;;;;5055132;28;20474;-68
2021/01/02 04:26:39;;;;;;;6.87;5.90;;;19.90;46.20;;;;;;5057610;28;20506;-67
2021/01/02 04:29:06;;;;;;;8.33;6.27;;;19.80;46.10;;;;;;5053112;28;20588;-68
2021/01/02 04:31:34;;;;;;;5.87;5.40;;;19.80;46.10;;;;;;5059719;28;20538;-67
2021/01/02 04:34:00;;;;;;;6.83;6.23;;;19.80;46.10;;;;;;5056583;28;20485;-67
2021/01/02 04:36:26;;;;;;;5.77;5.23;;;19.80;46.10;;;;;;5056690;28;20469;-67
2021/01/02 04:38:52;;;;;;;6.70;5.73;;;19.80;46.40;;;;;;5059309;28;20490;-68
2021/01/02 04:41:18;;;;;;;6.50;5.90;;;19.80;46.20;;;;;;5058660;28;20481;-68
2021/01/02 04:43:45;;;;;;;6.93;6.23;;;19.80;46.10;;;;;;5061504;28;20481;-67
2021/01/02 04:46:13;;;;;;;6.00;5.50;;;19.80;46.30;;;;;;5061128;28;20498;-69
2021/01/02 04:48:39;;;;;;;5.77;5.23;;;19.80;46.30;;;;;;5059599;28;20480;-68
2021/01/02 04:51:07;;;;;;;6.07;5.47;;;19.80;46.30;;;;;;5057273;28;20585;-68
2021/01/02 04:53:33;;;;;;;7.97;6.63;;;19.80;46.40;;;;;;5053113;28;20996;-68
2021/01/02 04:56:00;;;;;;;5.37;4.97;;;19.80;46.50;;;;;;5070882;28;21033;-68
2021/01/02 04:58:26;;;;;;;5.50;5.10;;;19.90;46.50;;;;;;5060110;28;21128;-68
2021/01/02 05:00:53;;;;;;;5.23;4.83;;;19.90;46.40;;;;;;5059078;28;20527;-68
2021/01/02 05:03:20;;;;;;;5.53;5.00;;;19.90;46.60;;;;;;5060605;28;21003;-68
2021/01/02 05:05:49;;;;;;;5.40;5.00;;;20.00;46.50;;;;;;5055901;28;20477;-67
2021/01/02 05:08:15;;;;;;;4.93;4.60;;;20.00;46.50;;;;;;5046728;28;20477;-68
2021/01/02 05:10:41;;;;;;;6.23;5.50;;;20.00;46.50;;;;;;5059002;28;20481;-67
2021/01/02 05:13:08;;;;;;;4.93;4.63;;;20.00;46.30;;;;;;5060496;28;21425;-68
2021/01/02 05:15:34;;;;;;;5.43;5.00;;;20.00;46.20;;;;;;5058780;28;20553;-67
2021/01/02 05:18:01;;;;;;;10.80;5.80;;;19.90;46.00;;;;;;5057709;28;21016;-67
2021/01/02 05:20:28;;;;;;;5.33;4.83;;;19.90;46.00;;;;;;5060592;28;20557;-68
2021/01/02 05:22:54;;;;;;;5.77;5.27;;;19.90;46.00;;;;;;5059625;28;20497;-67
2021/01/02 05:25:20;;;;;;;5.57;4.90;;;19.90;46.10;;;;;;5059581;28;20477;-68
2021/01/02 05:27:47;;;;;;;5.50;5.00;;;19.90;46.10;;;;;;5060313;28;20489;-68
2021/01/02 05:30:20;;;;;;;6.47;5.20;;;19.80;46.10;;;;;;5059098;28;20485;-67
2021/01/02 05:32:59;;;;;;;5.87;5.13;;;19.80;45.90;;;;;;5039672;28;20647;-67
2021/01/02 05:35:26;;;;;;;5.63;5.13;;;19.80;46.00;;;;;;5061665;28;20468;-67
2021/01/02 05:37:53;;;;;;;4.03;3.80;;;19.90;46.00;;;;;;5061987;28;20488;-68
2021/01/02 05:40:32;;;;;;;5.53;5.10;;;19.80;46.00;;;;;;5058606;28;21015;-68
2021/01/02 05:42:59;;;;;;;6.80;4.50;;;19.80;46.10;;;;;;5057603;28;20485;-67
2021/01/02 05:45:27;;;;;;;5.37;4.87;;;19.90;46.30;;;;;;5059625;28;21570;-68
2021/01/02 05:47:53;;;;;;;5.00;4.60;;;19.80;46.10;;;;;;5059047;28;20494;-68
2021/01/02 05:50:20;;;;;;;4.80;4.33;;;19.80;46.30;;;;;;5059732;28;20489;-67
2021/01/02 05:52:49;;;;;;;4.90;4.50;;;19.90;46.30;;;;;;5059554;28;20571;-68
2021/01/02 05:55:30;;;;;;;4.90;4.60;;;19.80;46.10;;;;;;5057935;28;20535;-67
2021/01/02 05:57:56;;;;;;;4.87;4.47;;;19.80;46.00;;;;;;5059276;28;20485;-68
2021/01/02 06:00:23;;;;;;;5.47;4.97;;;19.80;46.10;;;;;;5059090;28;20881;-68
2021/01/02 06:02:49;;;;;;;5.10;4.60;;;19.80;46.20;;;;;;5056175;28;20482;-68
2021/01/02 06:05:15;;;;;;;4.90;4.50;;;19.80;46.10;;;;;;5060019;28;20488;-68
2021/01/02 06:07:48;;;;;;;4.33;4.10;;;19.80;46.10;;;;;;5058808;28;20473;-68
2021/01/02 06:10:14;;;;;;;5.37;4.97;;;19.80;46.00;;;;;;5059040;28;21034;-67
2021/01/02 06:12:42;;;;;;;4.97;4.57;;;19.90;46.00;;;;;;5063283;28;20472;-67
2021/01/02 06:15:09;;;;;;;5.33;4.97;;;19.90;45.90;;;;;;5058797;28;20488;-68
2021/01/02 06:17:36;;;;;;;5.33;4.93;;;19.90;45.80;;;;;;5057820;28;20494;-67
2021/01/02 06:20:04;;;;;;;4.80;4.50;;;20.00;45.80;;;;;;5057483;28;20939;-67
2021/01/02 06:22:31;;;;;;;5.73;5.27;;;20.00;45.60;;;;;;5057101;28;20543;-68
2021/01/02 06:24:57;;;;;;;5.37;4.87;;;20.00;45.50;;;;;;5057721;28;20497;-66
2021/01/02 06:27:23;;;;;;;4.80;4.43;;;20.10;45.60;;;;;;5059028;28;20481;-67
2021/01/02 06:29:52;;;;;;;5.00;4.60;;;20.10;45.40;;;;;;5059000;28;20484;-67
2021/01/02 06:32:19;;;;;;;4.83;4.43;;;20.10;45.30;;;;;;5062836;28;20489;-66
2021/01/02 06:34:45;;;;;;;6.07;5.30;;;20.10;45.30;;;;;;5060766;28;20469;-67
2021/01/02 06:37:12;;;;;;;4.73;4.33;;;20.20;45.50;;;;;;5054918;28;20494;-66
2021/01/02 06:39:38;;;;;;;4.80;4.40;;;20.20;45.40;;;;;;5058100;28;20539;-67
2021/01/02 06:42:31;;;;;;;4.37;4.00;;;20.20;45.60;;;;;;5057351;28;20505;-67
2021/01/02 06:44:58;;;;;;;4.90;4.43;;;20.20;45.50;;;;;;5056360;28;20573;-67
2021/01/02 06:47:31;;;;;;;5.00;4.57;;;20.20;45.50;;;;;;5057677;28;20504;-67
2021/01/02 06:49:57;;;;;;;5.27;4.80;;;20.20;45.40;;;;;;5058638;28;20516;-67
2021/01/02 06:52:28;;;;;;;5.10;4.63;;;20.10;45.30;;;;;;5058746;28;20501;-67
2021/01/02 06:54:55;;;;;;;5.17;4.67;;;20.10;45.40;;;;;;5048447;28;20477;-67
2021/01/02 06:57:23;;;;;;;5.10;4.70;;;20.10;45.40;;;;;;5071938;28;20555;-68
2021/01/02 06:59:49;;;;;;;4.17;3.87;;;20.10;45.40;;;;;;5058401;28;20486;-66
2021/01/02 07:02:30;;;;;;;4.37;4.17;;;20.10;45.50;;;;;;5056522;28;20485;-66
2021/01/02 07:04:56;;;;;;;5.30;4.90;;;20.10;45.60;;;;;;5031363;28;20505;-66
2021/01/02 07:07:38;;;;;;;4.03;3.83;;;20.20;45.60;;;;;;5035261;28;20475;-67
2021/01/02 07:10:16;;;;;;;4.67;4.17;;;20.20;45.50;;;;;;5036683;28;20842;-67
2021/01/02 07:12:42;;;;;;;5.10;4.60;;;20.20;45.40;;;;;;5035669;28;21710;-66
2021/01/02 07:15:09;;;;;;;5.17;4.77;;;20.20;45.60;;;;;;5039654;28;20604;-67
2021/01/02 07:17:36;;;;;;;4.33;4.00;;;20.10;45.70;;;;;;5040566;28;20486;-67
2021/01/02 07:20:04;;;;;;;5.03;3.80;;;20.10;45.70;;;;;;5047272;28;20497;-67
2021/01/02 07:22:31;;;;;;;5.30;4.97;;;20.10;45.70;;;;;;5064797;28;20543;-67
2021/01/02 07:25:08;;;;;;;5.70;4.37;;;20.10;45.60;;;;;;5057900;28;21101;-67
2021/01/02 07:27:36;;;;;;;5.17;4.60;;;20.10;45.60;;;;;;5056001;28;20608;-66
2021/01/02 07:30:05;;;;;;;5.17;4.33;;;20.10;45.50;;;;;;5053891;28;20492;-67
2021/01/02 07:32:32;;;;;;;4.83;4.37;;;20.10;45.40;;;;;;5055052;28;20514;-67
2021/01/02 07:34:59;;;;;;;4.57;4.17;;;20.20;45.70;;;;;;5057734;28;20478;-68
2021/01/02 07:37:27;;;;;;;5.20;4.80;;;20.10;45.40;;;;;;5053724;28;20594;-67
2021/01/02 07:39:54;;;;;;;6.13;5.63;;;20.20;45.50;;;;;;5053369;28;20497;-67
2021/01/02 07:42:22;;;;;;;4.07;3.77;;;20.20;45.50;;;;;;5063696;28;20493;-67
2021/01/02 07:44:54;;;;;;;4.10;3.80;;;20.20;45.40;;;;;;5041165;28;20577;-67
2021/01/02 07:47:20;;;;;;;4.87;4.47;;;20.20;45.40;;;;;;5024254;28;20485;-67
2021/01/02 07:49:46;;;;;;;4.57;4.17;;;20.30;45.40;;;;;;5035530;28;20486;-68
2021/01/02 07:52:13;;;;;;;4.00;3.70;;;20.20;45.40;;;;;;5044001;28;20498;-68
2021/01/02 07:54:39;;;;;;;3.87;3.67;;;20.30;45.40;;;;;;5061152;28;20833;-68
2021/01/02 07:57:06;;;;;;;4.00;3.73;;;20.20;45.50;;;;;;5055487;28;20486;-68
2021/01/02 07:59:33;;;;;;;5.43;4.93;;;20.20;45.50;;;;;;5053867;28;20493;-68
2021/01/02 08:02:00;;;;;;;7.20;4.57;;;20.20;45.50;;;;;;5055641;28;21594;-68
2021/01/02 08:04:26;;;;;;;4.60;4.20;;;20.20;45.30;;;;;;5052370;28;20488;-68
2021/01/02 08:06:54;;;;;;;3.77;3.57;;;20.20;45.40;;;;;;5053904;28;20480;-68
2021/01/02 08:09:21;;;;;;;6.07;5.30;;;20.20;45.40;;;;;;5058915;28;20997;-68
2021/01/02 08:11:51;;;;;;;4.23;3.83;;;20.20;45.40;;;;;;5049609;28;20474;-68
2021/01/02 08:14:18;;;;;;;5.60;4.70;;;20.20;46.20;;;;;;5036437;28;20502;-68
2021/01/02 08:17:01;;;;;;;4.77;4.47;;;20.20;45.40;;;;;;5057258;28;21160;-67
2021/01/02 08:19:28;;;;;;;5.63;4.80;;;20.20;45.50;;;;;;5035713;28;20471;-67
2021/01/02 08:21:54;;;;;;;5.10;4.70;;;20.20;45.50;;;;;;5034864;28;21238;-68
2021/01/02 08:24:21;;;;;;;4.97;4.60;;;20.20;45.50;;;;;;5036346;28;20497;-67
2021/01/02 08:26:47;;;;;;;4.40;4.10;;;20.20;45.40;;;;;;5039388;28;20486;-67
2021/01/02 08:29:14;;;;;;;4.93;4.43;;;20.20;45.50;;;;;;5046894;28;20484;-67
2021/01/02 08:31:45;;;;;;;5.67;5.27;;;20.20;45.50;;;;;;5063200;28;20517;-67
2021/01/02 08:34:13;;;;;;;5.53;5.13;;;20.20;45.40;;;;;;5053920;28;20527;-67
2021/01/02 08:36:41;;;;;;;4.33;4.03;;;20.20;45.50;;;;;;5055163;28;20552;-67
2021/01/02 08:39:07;;;;;;;5.10;4.60;;;20.20;45.60;;;;;;5053395;28;21001;-67
2021/01/02 08:41:34;;;;;;;6.27;4.57;;;20.20;45.60;;;;;;5052358;28;20490;-67
2021/01/02 08:44:00;;;;;;;4.80;4.40;;;20.20;45.50;;;;;;5053219;28;20554;-67
2021/01/02 08:46:26;;;;;;;4.40;4.10;;;20.30;45.50;;;;;;5057269;28;20478;-67
2021/01/02 08:48:52;;;;;;;4.30;4.00;;;20.30;45.40;;;;;;5053892;28;20584;-67
2021/01/02 08:51:22;;;;;;;4.73;4.33;;;20.30;45.50;;;;;;5057763;28;20477;-67
2021/01/02 08:53:48;;;;;;;8.93;4.10;;;20.30;45.40;;;;;;5036037;28;20500;-67
2021/01/02 08:56:22;;;;;;;5.87;4.83;;;20.30;45.40;;;;;;5062029;28;20493;-67
2021/01/02 08:58:49;;;;;;;4.80;4.40;;;20.30;45.30;;;;;;5044135;28;20542;-67
2021/01/02 09:01:15;;;;;;;5.57;4.83;;;20.30;45.40;;;;;;5053308;28;20493;-67
2021/01/02 09:03:41;;;;;;;5.83;4.90;;;20.30;45.50;;;;;;5052488;28;21098;-67
2021/01/02 09:06:20;;;;;;;5.47;4.60;;;20.30;45.50;;;;;;5054825;28;20478;-67
2021/01/02 09:08:46;;;;;;;4.60;4.30;;;20.30;45.60;;;;;;5054398;28;20473;-67
2021/01/02 09:11:12;;;;;;;4.70;4.30;;;20.30;45.60;;;;;;5051737;28;20490;-66
2021/01/02 09:13:38;;;;;;;4.83;4.50;;;20.30;45.50;;;;;;5054213;28;20489;-67
2021/01/02 09:16:14;;;;;;;5.37;4.40;;;20.30;45.40;;;;;;5056809;28;20492;-67
2021/01/02 09:18:41;;;;;;;5.57;4.27;;;20.30;45.30;;;;;;5054048;28;20478;-67
2021/01/02 09:21:17;;;;;;;5.20;4.80;;;20.40;45.40;;;;;;5058377;28;20485;-67
2021/01/02 09:23:43;;;;;;;4.23;3.93;;;20.40;45.30;;;;;;5038216;28;20476;-67
2021/01/02 09:26:17;;;;;;;6.13;5.10;;;20.40;45.40;;;;;;5056399;28;20489;-67
2021/01/02 09:28:44;;;;;;;5.30;4.80;;;20.40;46.20;;;;;;5057812;28;20498;-66
2021/01/02 09:31:11;;;;;;;6.20;4.87;;;20.40;45.30;;;;;;5052842;28;20907;-67
2021/01/02 09:33:37;;;;;;;5.07;4.67;;;20.30;45.40;;;;;;5070029;28;20906;-67
2021/01/02 09:36:03;;;;;;;5.47;4.83;;;20.30;45.40;;;;;;5056934;28;20497;-67
2021/01/02 09:38:30;;;;;;;5.20;4.80;;;20.30;45.50;;;;;;5058490;28;20518;-67
2021/01/02 09:40:57;;;;;;;5.10;4.60;;;20.30;45.50;;;;;;5058574;28;21211;-67
2021/01/02 09:43:23;;;;;;;5.37;4.93;;;20.30;45.60;;;;;;5058947;28;21053;-67
2021/01/02 09:45:49;;;;;;;4.90;4.37;;;20.20;45.50;;;;;;5042427;28;20509;-67
2021/01/02 09:48:17;;;;;;;5.07;4.57;;;20.20;45.50;;;;;;5037345;28;20479;-66
2021/01/02 09:50:43;;;;;;;5.67;5.17;;;20.20;45.50;;;;;;5037478;28;20495;-67
2021/01/02 09:53:09;;;;;;;6.60;5.50;;;20.20;45.60;;;;;;5038962;28;21020;-67
2021/01/02 09:55:35;;;;;;;4.80;4.40;;;20.20;45.60;;;;;;5028345;28;20479;-67
2021/01/02 09:58:02;;;;;;;5.37;4.83;;;20.20;45.60;;;;;;5051122;28;20474;-67
2021/01/02 10:00:29;;;;;;;4.63;4.23;;;20.20;45.70;;;;;;5043728;28;20551;-67
2021/01/02 10:02:55;;;;;;;6.30;5.10;;;20.20;45.70;;;;;;5042921;28;20486;-68
2021/01/02 10:05:22;;;;;;;5.90;5.30;;;20.20;45.70;;;;;;5035648;28;20475;-68
2021/01/02 10:07:48;;;;;;;4.67;4.23;;;20.30;45.60;;;;;;5052559;28;20482;-67
2021/01/02 10:10:15;;;;;;;4.93;4.63;;;20.30;45.60;;;;;;5056359;28;20522;-68
2021/01/02 10:12:41;;;;;;;4.70;4.30;;;20.30;45.60;;;;;;5054969;28;20487;-67
2021/01/02 10:15:09;;;;;;;5.17;4.73;;;20.30;45.60;;;;;;5054971;28;21002;-67
2021/01/02 10:17:36;;;;;;;5.83;4.53;;;20.30;45.60;;;;;;5056231;28;20485;-66
2021/01/02 10:20:02;;;;;;;5.00;4.20;;;20.30;45.60;;;;;;5055486;28;20486;-67
2021/01/02 10:22:29;;;;;;;5.47;4.97;;;20.30;45.70;;;;;;5058872;28;20476;-67
2021/01/02 10:24:55;;;;;;;4.70;4.30;;;20.30;45.60;;;;;;5060577;28;20492;-67
2021/01/02 10:27:21;;;;;;;5.80;5.30;;;20.20;45.50;;;;;;5056458;28;20498;-68
2021/01/02 10:29:48;;;;;;;5.80;5.00;;;20.20;45.50;;;;;;5054961;28;20481;-68
2021/01/02 10:32:16;;;;;;;6.03;5.43;;;20.20;45.70;;;;;;5055863;28;20481;-67
2021/01/02 10:34:42;;;;;;;5.23;4.40;;;20.20;45.60;;;;;;5052659;28;20487;-67
2021/01/02 10:37:08;;;;;;;4.53;4.13;;;20.20;45.60;;;;;;5048677;28;20497;-67
2021/01/02 10:39:37;;;;;;;5.00;4.50;;;20.10;45.60;;;;;;5059634;28;20498;-67
2021/01/02 10:42:03;;;;;;;5.23;4.77;;;20.10;45.60;;;;;;5057035;28;20489;-67
2021/01/02 10:44:29;;;;;;;5.10;4.70;;;20.10;45.60;;;;;;5057407;28;20469;-67
2021/01/02 10:46:56;;;;;;;6.40;4.93;;;20.20;45.70;;;;;;5058414;28;21623;-67
2021/01/02 10:49:23;;;;;;;5.60;5.10;;;20.10;45.60;;;;;;5057721;28;21635;-67
2021/01/02 10:51:49;;;;;;;5.30;4.80;;;20.20;45.60;;;;;;5049634;28;20551;-67
2021/01/02 10:54:16;;;;;;;5.27;4.77;;;20.10;45.60;;;;;;5058617;28;21011;-67
2021/01/02 10:56:44;;;;;;;6.20;4.93;;;20.20;45.70;;;;;;5059004;28;20477;-67
2021/01/02 10:59:10;;;;;;;5.37;4.83;;;20.20;45.70;;;;;;5048172;28;21076;-67
2021/01/02 11:01:40;;;;;;;5.30;4.90;;;20.20;45.70;;;;;;5057400;28;20886;-67
2021/01/02 11:04:08;;;;;;;4.50;4.20;;;20.20;45.70;;;;;;5051870;28;20494;-67
2021/01/02 11:06:35;;;;;;;4.90;4.53;;;20.20;45.60;;;;;;5059990;28;20509;-67
2021/01/02 11:09:01;;;;;;;5.70;4.40;;;20.20;45.60;;;;;;5053296;28;20493;-67
2021/01/02 11:11:28;;;;;;;5.87;4.83;;;20.30;45.70;;;;;;5057376;28;20488;-67
2021/01/02 11:13:54;;;;;;;7.70;4.70;;;20.30;45.70;;;;;;5057209;28;21190;-66
2021/01/02 11:16:28;;;;;;;4.83;4.37;;;20.30;45.70;;;;;;5046838;28;20474;-66
2021/01/02 11:18:54;;;;;;;6.37;4.40;;;20.30;45.60;;;;;;5049279;28;20484;-67
2021/01/02 11:21:20;;;;;;;4.80;4.27;;;20.30;45.50;;;;;;5056403;28;20486;-67
2021/01/02 11:23:47;;;;;;;4.70;4.30;;;20.30;45.60;;;;;;5058116;28;20494;-67
2021/01/02 11:26:14;;;;;;;5.63;4.60;;;20.30;45.60;;;;;;5057356;28;20488;-68
2021/01/02 11:28:40;;;;;;;5.10;4.60;;;20.30;45.60;;;;;;5057810;28;20504;-67
2021/01/02 11:31:06;;;;;;;4.07;3.80;;;20.30;45.50;;;;;;5057703;28;20486;-67
2021/01/02 11:33:32;;;;;;;5.63;4.80;;;20.30;45.50;;;;;;5041577;28;21211;-67
2021/01/02 11:35:58;;;;;;;6.43;4.70;;;20.30;45.50;;;;;;5059375;28;20852;-66
2021/01/02 11:38:24;;;;;;;4.80;4.20;;;20.30;45.50;;;;;;5037190;28;20872;-66
2021/01/02 11:40:51;;;;;;;7.23;5.60;;;20.30;45.60;;;;;;5043901;28;20493;-67
2021/01/02 11:43:18;;;;;;;4.93;4.43;;;20.30;45.60;;;;;;5053769;28;20481;-67
2021/01/02 11:45:45;;;;;;;5.70;4.47;;;20.30;45.60;;;;;;5048805;28;20477;-66
2021/01/02 11:48:12;;;;;;;5.27;4.80;;;20.20;45.70;;;;;;5060610;28;20493;-68
2021/01/02 11:50:38;;;;;;;5.20;4.70;;;20.20;45.60;;;;;;5056861;28;20539;-67
2021/01/02 11:53:05;;;;;;;5.73;4.93;;;20.30;45.60;;;;;;5054677;28;20840;-67
2021/01/02 11:55:31;;;;;;;4.83;4.43;;;20.30;46.50;;;;;;5057507;28;20478;-67
2021/01/02 11:57:58;;;;;;;5.60;5.10;;;20.20;45.60;;;;;;5057063;28;20502;-67
2021/01/02 12:00:25;;;;;;;5.53;4.30;;;20.20;45.60;;;;;;5056606;28;20868;-66
2021/01/02 12:02:51;;;;;;;4.53;4.13;;;20.20;45.60;;;;;;5045553;28;20477;-67
2021/01/02 12:05:17;;;;;;;4.90;3.53;;;20.20;45.70;;;;;;5057240;28;20474;-66
2021/01/02 12:07:43;;;;;;;7.53;4.30;;;20.20;45.60;;;;;;5057262;28;20474;-66
2021/01/02 12:10:10;;;;;;;4.50;4.10;;;20.20;45.60;;;;;;5056129;28;20485;-66
2021/01/02 12:12:36;;;;;;;5.40;4.90;;;20.20;45.70;;;;;;5043923;28;20485;-67
2021/01/02 12:15:05;;;;;;;4.80;4.40;;;20.30;45.70;;;;;;5051198;28;20477;-66
2021/01/02 12:17:31;;;;;;;5.20;4.80;;;20.30;45.70;;;;;;5057222;28;20481;-67
2021/01/02 12:19:59;;;;;;;4.97;4.47;;;20.20;45.70;;;;;;5061072;28;20496;-67
2021/01/02 12:22:25;;;;;;;6.23;4.67;;;20.30;45.70;;;;;;5057701;28;20490;-66
2021/01/02 12:24:51;;;;;;;5.87;4.93;;;20.30;45.70;;;;;;5055929;28;20539;-67
2021/01/02 12:27:18;;;;;;;4.93;4.47;;;20.30;45.70;;;;;;5054795;28;20580;-67
2021/01/02 12:29:44;;;;;;;4.63;4.23;;;20.20;45.60;;;;;;5056415;28;20474;-67
2021/01/02 12:32:11;;;;;;;6.17;5.57;;;20.20;45.60;;;;;;5057380;28;20496;-66
2021/01/02 12:34:38;;;;;;;6.03;4.63;;;20.20;45.70;;;;;;5047767;28;20480;-67
2021/01/02 12:37:06;;;;;;;6.13;5.07;;;20.30;45.70;;;;;;5055681;28;21004;-68
2021/01/02 12:39:33;;;;;;;6.23;5.53;;;20.30;45.70;;;;;;5055752;28;21292;-67
2021/01/02 12:41:59;;;;;;;6.27;5.40;;;20.20;45.60;;;;;;5057111;28;21253;-67
2021/01/02 12:44:25;;;;;;;5.63;5.13;;;20.20;45.60;;;;;;5056975;28;20493;-67
2021/01/02 12:46:52;;;;;;;7.00;5.77;;;20.20;45.70;;;;;;5053340;28;20650;-66
2021/01/02 12:49:20;;;;;;;5.43;4.90;;;20.20;45.60;;;;;;5060570;28;20568;-67
2021/01/02 12:51:47;;;;;;;5.33;4.93;;;20.20;45.50;;;;;;5057225;28;20485;-67
2021/01/02 12:54:13;;;;;;;6.00;4.87;;;20.20;45.60;;;;;;5056300;28;20503;-67